createdAt,value
2022-12-17T00:01:54.312Z,455.17
2022-12-17T00:04:39.903Z,441.70
2022-12-17T00:07:25.381Z,543.43
2022-12-17T00:10:10.862Z,445.40
2022-12-17T00:12:56.581Z,602.47
2022-12-17T00:15:43.199Z,429.30
2022-12-17T00:18:30.942Z,476.90
2022-12-17T00:21:19.153Z,570.10
2022-12-17T00:24:06.024Z,549.73
2022-12-17T00:26:52.523Z,530.47
2022-12-17T00:29:38.310Z,483.50
2022-12-17T00:32:24.170Z,476.17
2022-12-17T00:35:10.644Z,372.60
2022-12-17T00:37:59.441Z,432.87
2022-12-17T00:40:44.914Z,350.70
2022-12-17T00:43:31.888Z,414.40
2022-12-17T00:46:17.954Z,432.97
2022-12-17T00:49:03.984Z,470.97
2022-12-17T00:51:49.957Z,475.17
2022-12-17T00:54:35.260Z,479.23
2022-12-17T00:57:20.677Z,663.13
2022-12-17T01:00:06.173Z,528.10
2022-12-17T01:02:51.855Z,464.37
2022-12-17T01:05:37.679Z,378.87
2022-12-17T01:08:33.644Z,547.67
2022-12-17T01:11:26.131Z,591.37
2022-12-17T01:14:12.682Z,458.53
2022-12-17T01:16:58.338Z,435.27
2022-12-17T01:19:43.938Z,431.53
2022-12-17T01:22:29.445Z,337.10
2022-12-17T01:25:14.852Z,283.97
2022-12-17T01:28:00.353Z,305.67
2022-12-17T01:30:45.901Z,416.03
2022-12-17T01:33:33.032Z,218.83
2022-12-17T01:36:19.193Z,268.40
2022-12-17T01:39:04.793Z,220.03
2022-12-17T01:41:50.643Z,388.50
2022-12-17T01:44:57.785Z,256.30
2022-12-17T01:47:56.456Z,271.97
2022-12-17T01:50:47.464Z,186.77
2022-12-17T01:53:37.576Z,211.30
2022-12-17T01:56:24.680Z,184.77
2022-12-17T01:59:10.992Z,199.03
2022-12-17T02:01:57.819Z,238.53
2022-12-17T02:04:44.224Z,405.57
2022-12-17T02:07:48.194Z,256.80
2022-12-17T02:11:12.496Z,265.07
2022-12-17T02:14:05.398Z,266.50
2022-12-17T02:17:12.698Z,210.97
2022-12-17T02:20:42.874Z,378.60
2022-12-17T02:24:03.943Z,272.23
2022-12-17T02:27:02.336Z,210.77
2022-12-17T02:30:00.291Z,239.57
2022-12-17T02:32:46.783Z,258.77
2022-12-17T02:35:40.966Z,193.90
2022-12-17T02:38:42.583Z,218.77
2022-12-17T02:41:47.732Z,230.83
2022-12-17T02:44:37.808Z,264.43
2022-12-17T02:47:27.997Z,93.00
2022-12-17T02:50:13.689Z,269.10
2022-12-17T02:53:06.612Z,223.73
2022-12-17T02:55:55.080Z,291.13
2022-12-17T02:58:40.546Z,204.83
2022-12-17T03:01:26.265Z,172.37
2022-12-17T03:04:11.993Z,166.33
2022-12-17T03:06:57.457Z,268.17
2022-12-17T03:09:42.789Z,201.80
2022-12-17T03:12:28.379Z,227.40
2022-12-17T03:15:13.892Z,309.23
2022-12-17T03:17:59.304Z,288.53
2022-12-17T03:20:45.063Z,225.70
2022-12-17T03:23:31.243Z,180.73
2022-12-17T03:26:21.713Z,284.07
2022-12-17T03:29:07.534Z,188.40
2022-12-17T03:31:52.821Z,208.20
2022-12-17T03:34:38.233Z,170.57
2022-12-17T03:37:24.285Z,152.57
2022-12-17T03:40:09.646Z,176.57
2022-12-17T03:42:55.552Z,174.77
2022-12-17T03:45:41.401Z,186.60
2022-12-17T03:48:33.912Z,243.10
2022-12-17T03:51:20.172Z,191.87
2022-12-17T03:54:06.591Z,201.47
2022-12-17T03:56:52.315Z,190.53
2022-12-17T03:59:37.784Z,170.37
2022-12-17T04:02:24.084Z,174.27
2022-12-17T04:05:13.800Z,194.90
2022-12-17T04:08:01.977Z,167.90
2022-12-17T04:10:47.612Z,190.77
2022-12-17T04:13:38.793Z,157.67
2022-12-17T04:16:26.175Z,147.20
2022-12-17T04:19:11.560Z,112.30
2022-12-17T04:21:56.974Z,115.13
2022-12-17T04:24:42.534Z,148.57
2022-12-17T04:27:28.044Z,133.07
2022-12-17T04:30:13.612Z,135.50
2022-12-17T04:32:59.016Z,150.83
2022-12-17T04:35:44.487Z,137.77
2022-12-17T04:38:29.857Z,148.00
2022-12-17T04:41:15.271Z,125.80
2022-12-17T04:44:03.243Z,96.77
2022-12-17T04:46:49.456Z,109.23
2022-12-17T04:49:35.286Z,133.57
2022-12-17T04:52:20.772Z,154.03
2022-12-17T04:55:06.769Z,205.17
2022-12-17T04:57:52.987Z,100.47
2022-12-17T05:00:38.905Z,197.07
2022-12-17T05:03:35.553Z,128.67
2022-12-17T05:06:21.657Z,111.50
2022-12-17T05:09:07.279Z,190.60
2022-12-17T05:11:53.166Z,208.17
2022-12-17T05:14:38.947Z,271.73
2022-12-17T05:17:25.159Z,195.47
2022-12-17T05:20:10.695Z,173.47
2022-12-17T05:22:56.568Z,156.77
2022-12-17T05:25:42.602Z,169.83
2022-12-17T05:28:28.331Z,170.33
2022-12-17T05:31:14.991Z,269.53
2022-12-17T05:34:01.652Z,173.70
2022-12-17T05:36:47.194Z,230.30
2022-12-17T05:39:32.942Z,211.60
2022-12-17T05:42:18.449Z,109.03
2022-12-17T05:45:03.770Z,142.33
2022-12-17T05:47:49.194Z,187.67
2022-12-17T05:50:35.151Z,206.83
2022-12-17T05:53:24.534Z,211.33
2022-12-17T05:56:12.226Z,166.63
2022-12-17T05:58:58.607Z,152.10
2022-12-17T06:01:44.070Z,196.00
2022-12-17T06:04:30.006Z,173.40
2022-12-17T06:07:15.571Z,149.60
2022-12-17T06:10:01.386Z,116.63
2022-12-17T06:12:47.049Z,103.27
2022-12-17T06:15:32.469Z,128.47
2022-12-17T06:18:18.688Z,142.97
2022-12-17T06:21:05.357Z,144.70
2022-12-17T06:23:51.105Z,148.87
2022-12-17T06:26:38.140Z,116.80
2022-12-17T06:29:23.340Z,158.60
2022-12-17T06:32:08.862Z,226.30
2022-12-17T06:34:54.337Z,137.97
2022-12-17T06:37:39.894Z,132.63
2022-12-17T06:40:26.349Z,145.23
2022-12-17T06:43:15.889Z,160.70
2022-12-17T06:46:01.560Z,139.13
2022-12-17T06:48:47.434Z,189.23
2022-12-17T06:51:33.015Z,169.43
2022-12-17T06:54:18.791Z,148.33
2022-12-17T06:57:05.216Z,233.27
2022-12-17T06:59:50.852Z,159.80
2022-12-17T07:02:36.494Z,263.93
2022-12-17T07:05:28.452Z,246.17
2022-12-17T07:08:19.475Z,121.77
2022-12-17T07:11:05.277Z,121.90
2022-12-17T07:13:51.458Z,191.20
2022-12-17T07:16:51.541Z,245.67
2022-12-17T07:19:37.304Z,104.47
2022-12-17T07:22:22.922Z,138.60
2022-12-17T07:25:08.689Z,115.07
2022-12-17T07:27:54.509Z,131.17
2022-12-17T07:30:39.957Z,170.00
2022-12-17T07:33:28.427Z,158.83
2022-12-17T07:36:15.225Z,149.37
2022-12-17T07:39:01.251Z,118.20
2022-12-17T07:41:46.915Z,127.70
2022-12-17T07:44:32.684Z,130.90
2022-12-17T07:47:18.148Z,107.67
2022-12-17T07:50:03.605Z,114.77
2022-12-17T07:52:49.715Z,119.20
2022-12-17T07:55:35.528Z,110.13
2022-12-17T07:58:27.712Z,123.87
2022-12-17T08:01:13.975Z,118.70
2022-12-17T08:04:02.148Z,150.40
2022-12-17T08:06:48.078Z,154.73
2022-12-17T08:09:47.496Z,135.17
2022-12-17T08:12:32.855Z,136.63
2022-12-17T08:15:18.697Z,141.47
2022-12-17T08:18:04.409Z,137.93
2022-12-17T08:20:50.437Z,188.37
2022-12-17T08:23:36.603Z,100.67
2022-12-17T08:26:22.659Z,123.00
2022-12-17T08:29:08.092Z,106.30
2022-12-17T08:31:53.508Z,181.43
2022-12-17T08:34:38.878Z,162.63
2022-12-17T08:37:24.623Z,130.90
2022-12-17T08:40:09.917Z,138.43
2022-12-17T08:42:55.800Z,105.20
2022-12-17T08:45:49.575Z,104.43
2022-12-17T08:48:35.524Z,129.63
2022-12-17T08:51:20.929Z,108.27
2022-12-17T08:54:06.409Z,124.03
2022-12-17T08:56:52.095Z,82.80
2022-12-17T08:59:38.107Z,87.17
2022-12-17T09:02:23.864Z,94.13
2022-12-17T09:05:09.754Z,123.03
2022-12-17T09:07:55.911Z,112.77
2022-12-17T09:10:41.613Z,96.37
2022-12-17T09:13:27.081Z,104.83
2022-12-17T09:16:14.899Z,82.43
2022-12-17T09:19:01.793Z,86.40
2022-12-17T09:21:50.069Z,91.13
2022-12-17T09:24:35.789Z,110.47
2022-12-17T09:27:21.316Z,143.73
2022-12-17T09:30:06.688Z,98.70
2022-12-17T09:32:52.376Z,79.43
2022-12-17T09:35:48.815Z,94.67
2022-12-17T09:38:37.869Z,122.03
2022-12-17T09:42:18.877Z,140.63
2022-12-17T09:45:55.455Z,95.70
2022-12-17T09:49:16.808Z,108.63
2022-12-17T09:52:02.671Z,135.00
2022-12-17T09:55:07.098Z,132.10
2022-12-17T09:57:56.341Z,126.33
2022-12-17T10:00:47.497Z,99.40
2022-12-17T10:03:42.603Z,181.70
2022-12-17T10:06:36.131Z,121.27
2022-12-17T10:09:35.260Z,205.63
2022-12-17T10:12:39.024Z,93.93
2022-12-17T10:15:26.706Z,96.70
2022-12-17T10:18:12.561Z,97.23
2022-12-17T10:21:42.953Z,94.13
2022-12-17T10:24:30.765Z,90.37
2022-12-17T10:27:17.077Z,91.13
2022-12-17T10:30:03.490Z,77.43
2022-12-17T10:32:49.691Z,93.20
2022-12-17T10:35:44.289Z,120.77
2022-12-17T10:38:48.035Z,83.67
2022-12-17T10:41:53.771Z,82.80
2022-12-17T10:44:56.436Z,72.13
2022-12-17T10:47:46.551Z,99.60
2022-12-17T10:50:42.130Z,105.37
2022-12-17T10:53:43.712Z,72.87
2022-12-17T10:56:45.490Z,72.30
2022-12-17T10:59:43.889Z,90.10
2022-12-17T11:02:44.697Z,93.77
2022-12-17T11:05:59.757Z,120.10
2022-12-17T11:08:45.882Z,98.00
2022-12-17T11:11:33.746Z,96.40
2022-12-17T11:14:22.963Z,87.87
2022-12-17T11:17:23.430Z,81.63
2022-12-17T11:20:20.490Z,90.13
2022-12-17T11:23:19.112Z,98.50
2022-12-17T11:26:21.571Z,99.73
2022-12-17T11:29:08.032Z,79.23
2022-12-17T11:32:28.924Z,76.10
2022-12-17T11:35:48.961Z,88.87
2022-12-17T11:38:51.859Z,79.87
2022-12-17T11:42:12.102Z,100.00
2022-12-17T11:45:45.480Z,77.73
2022-12-17T11:48:58.997Z,108.27
2022-12-17T11:52:12.600Z,92.90
2022-12-17T11:55:30.441Z,102.53
2022-12-17T11:58:50.194Z,91.60
2022-12-17T12:02:28.474Z,86.70
2022-12-17T12:06:03.791Z,78.63
2022-12-17T12:09:19.557Z,87.03
2022-12-17T12:12:52.934Z,85.47
2022-12-17T12:16:33.376Z,70.13
2022-12-17T12:19:43.387Z,75.73
2022-12-17T12:22:49.609Z,117.07
2022-12-17T12:26:23.867Z,103.07
2022-12-17T12:29:39.487Z,91.97
2022-12-17T12:32:49.699Z,100.23
2022-12-17T12:35:42.884Z,82.97
2022-12-17T12:38:50.882Z,92.93
2022-12-17T12:42:16.804Z,102.73
2022-12-17T12:45:34.069Z,135.20
2022-12-17T12:49:03.553Z,90.57
2022-12-17T12:51:54.629Z,86.03
2022-12-17T12:54:50.530Z,93.23
2022-12-17T12:57:59.552Z,103.93
2022-12-17T13:00:58.558Z,83.70
2022-12-17T13:03:55.868Z,72.07
2022-12-17T13:06:56.893Z,79.90
2022-12-17T13:09:49.049Z,80.53
2022-12-17T13:12:54.824Z,77.17
2022-12-17T13:15:41.135Z,80.77
2022-12-17T13:18:36.214Z,93.87
2022-12-17T13:21:26.674Z,74.50
2022-12-17T13:23:53.906Z,91.03
2022-12-17T13:26:39.277Z,88.97
2022-12-17T13:29:24.790Z,93.87
2022-12-17T13:32:23.412Z,136.00
2022-12-17T13:35:34.179Z,88.27
2022-12-17T13:38:38.564Z,101.10
2022-12-17T13:41:18.257Z,83.30
2022-12-17T13:43:54.485Z,99.60
2022-12-17T13:46:29.973Z,114.03
2022-12-17T13:49:04.495Z,103.47
2022-12-17T13:51:35.385Z,79.10
2022-12-17T13:54:04.659Z,85.13
2022-12-17T13:56:37.691Z,104.73
2022-12-17T13:59:09.580Z,110.93
2022-12-17T14:01:49.043Z,117.20
2022-12-17T14:04:29.924Z,121.20
2022-12-17T14:07:05.855Z,87.53
2022-12-17T14:09:43.046Z,97.93
2022-12-17T14:12:24.651Z,85.70
2022-12-17T14:15:08.554Z,101.13
2022-12-17T14:17:44.031Z,91.70
2022-12-17T14:20:22.005Z,88.10
2022-12-17T14:23:32.253Z,90.70
2022-12-17T14:25:59.812Z,83.60
2022-12-17T14:28:50.281Z,77.97
2022-12-17T14:31:29.885Z,121.63
2022-12-17T14:34:11.696Z,105.60
2022-12-17T14:36:44.849Z,96.20
2022-12-17T14:39:26.666Z,93.83
2022-12-17T14:42:25.435Z,85.80
2022-12-17T14:44:57.163Z,81.57
2022-12-17T14:47:33.323Z,118.90
2022-12-17T14:50:12.323Z,90.40
2022-12-17T14:52:55.449Z,87.17
2022-12-17T14:55:55.703Z,104.90
2022-12-17T14:58:26.172Z,100.23
2022-12-17T15:01:11.261Z,96.03
2022-12-17T15:03:48.053Z,75.27
2022-12-17T15:06:20.402Z,98.67
2022-12-17T15:08:51.258Z,96.30
2022-12-17T15:11:24.145Z,101.40
2022-12-17T15:13:56.298Z,115.50
2022-12-17T15:16:24.173Z,93.67
2022-12-17T15:18:51.209Z,94.77
2022-12-17T15:21:21.915Z,110.90
2022-12-17T15:23:49.801Z,129.70
2022-12-17T15:26:17.373Z,129.60
2022-12-17T15:28:45.118Z,118.57
2022-12-17T15:31:14.936Z,122.50
2022-12-17T15:33:42.896Z,131.07
2022-12-17T15:36:14.001Z,112.23
2022-12-17T15:38:41.270Z,118.90
2022-12-17T15:41:27.200Z,138.00
2022-12-17T15:43:54.190Z,123.43
2022-12-17T15:46:21.421Z,109.33
2022-12-17T15:48:50.594Z,123.60
2022-12-17T15:51:24.082Z,106.80
2022-12-17T15:58:19.061Z,141.13
2022-12-17T16:00:46.108Z,109.20
2022-12-17T16:03:13.186Z,170.97
2022-12-17T16:05:40.231Z,130.00
2022-12-17T16:08:07.756Z,119.77
2022-12-17T16:10:34.822Z,140.87
2022-12-17T16:13:01.850Z,111.63
2022-12-17T16:15:29.121Z,113.00
2022-12-17T16:19:07.520Z,129.73
2022-12-17T16:21:34.565Z,110.87
2022-12-17T16:24:01.549Z,154.67
2022-12-17T16:26:28.592Z,110.10
2022-12-17T16:28:58.718Z,102.40
2022-12-17T16:31:26.711Z,156.37
2022-12-17T16:33:53.846Z,227.20
2022-12-17T16:36:22.020Z,191.37
2022-12-17T16:38:54.699Z,124.77
2022-12-17T16:41:23.203Z,144.20
2022-12-17T16:43:50.282Z,172.10
2022-12-17T16:46:34.897Z,213.20
2022-12-17T16:49:23.919Z,165.57
2022-12-17T16:51:57.822Z,145.67
2022-12-17T16:54:30.919Z,168.90
2022-12-17T16:56:58.164Z,163.03
2022-12-17T16:59:25.295Z,133.40
2022-12-17T17:01:52.813Z,139.87
2022-12-17T17:04:23.057Z,138.13
2022-12-17T17:06:55.716Z,166.13
2022-12-17T17:09:25.335Z,175.17
2022-12-17T17:11:57.102Z,125.70
2022-12-17T17:14:25.067Z,164.00
2022-12-17T17:16:52.987Z,207.10
2022-12-17T17:19:20.526Z,166.30
2022-12-17T17:21:54.704Z,162.07
2022-12-17T17:24:26.538Z,131.50
2022-12-17T17:26:55.125Z,136.73
2022-12-17T17:29:22.480Z,150.97
2022-12-17T17:34:36.593Z,115.83
2022-12-17T17:37:04.127Z,118.07
2022-12-17T17:39:33.057Z,136.87
2022-12-17T17:42:00.670Z,97.60
2022-12-17T17:44:27.867Z,132.67
2022-12-17T17:46:54.861Z,124.57
2022-12-17T17:49:22.259Z,127.10
2022-12-17T17:52:09.091Z,118.83
2022-12-17T17:54:36.678Z,129.53
2022-12-17T17:57:03.747Z,111.33
2022-12-17T17:59:33.804Z,132.30
2022-12-17T18:02:02.735Z,124.50
2022-12-17T18:04:30.755Z,120.83
2022-12-17T18:09:44.770Z,128.77
2022-12-17T18:12:30.576Z,110.80
2022-12-17T18:15:15.307Z,102.17
2022-12-17T18:17:45.838Z,114.83
2022-12-17T18:20:13.822Z,103.13
2022-12-17T18:22:40.922Z,102.20
2022-12-17T18:25:08.450Z,112.33
2022-12-17T18:27:35.416Z,96.30
2022-12-17T18:30:02.510Z,89.90
2022-12-17T18:32:29.522Z,109.20
2022-12-17T18:34:56.514Z,117.33
2022-12-17T18:37:23.546Z,104.97
2022-12-17T18:39:50.568Z,110.13
2022-12-17T18:42:36.064Z,108.47
2022-12-17T18:45:04.017Z,106.77
2022-12-17T18:47:31.266Z,114.07
2022-12-17T18:49:58.353Z,89.57
2022-12-17T18:52:25.670Z,108.07
2022-12-17T18:54:52.762Z,141.77
2022-12-17T18:57:19.766Z,125.07
2022-12-17T18:59:46.860Z,99.73
2022-12-17T19:02:15.759Z,88.90
2022-12-17T19:04:43.369Z,107.60
2022-12-17T19:07:11.261Z,126.13
2022-12-17T19:09:40.153Z,111.40
2022-12-17T19:12:09.604Z,108.20
2022-12-17T19:14:37.146Z,116.80
2022-12-17T19:17:05.833Z,99.03
2022-12-17T19:19:33.636Z,112.50
2022-12-17T19:22:00.879Z,113.33
2022-12-17T19:24:28.223Z,142.17
2022-12-17T19:26:55.806Z,156.37
2022-12-17T19:29:22.936Z,111.17
2022-12-17T19:31:50.623Z,102.40
2022-12-17T19:34:19.143Z,107.47
2022-12-17T19:36:47.329Z,117.87
2022-12-17T19:39:18.924Z,94.70
2022-12-17T19:41:46.558Z,99.17
2022-12-17T19:44:16.793Z,112.83
2022-12-17T19:46:44.469Z,104.70
2022-12-17T19:49:16.575Z,106.17
2022-12-17T19:51:44.865Z,113.23
2022-12-17T19:54:15.401Z,120.43
2022-12-17T19:56:45.147Z,109.43
2022-12-17T19:59:13.917Z,119.67
2022-12-17T20:01:46.403Z,132.13
2022-12-17T20:04:17.519Z,99.10
2022-12-17T20:06:46.015Z,137.93
2022-12-17T20:09:14.644Z,110.53
2022-12-17T20:11:42.004Z,135.53
2022-12-17T20:14:18.582Z,105.33
2022-12-17T20:16:50.699Z,131.30
2022-12-17T20:19:33.312Z,198.20
2022-12-17T20:22:04.541Z,137.30
2022-12-17T20:24:32.392Z,109.73
2022-12-17T20:27:00.310Z,103.10
2022-12-17T20:29:27.621Z,146.37
2022-12-17T20:31:55.689Z,161.77
2022-12-17T20:34:23.983Z,170.50
2022-12-17T20:36:53.028Z,162.33
2022-12-17T20:39:27.697Z,196.23
2022-12-17T20:41:56.635Z,162.00
2022-12-17T20:44:23.729Z,144.83
2022-12-17T20:46:53.791Z,162.30
2022-12-17T20:49:20.964Z,119.73
2022-12-17T20:51:49.014Z,116.57
2022-12-17T20:54:16.361Z,110.90
2022-12-17T20:56:44.341Z,104.60
2022-12-17T20:59:18.781Z,119.07
2022-12-17T21:01:52.775Z,100.23
2022-12-17T21:04:23.881Z,105.97
2022-12-17T21:06:51.257Z,93.77
2022-12-17T21:09:22.425Z,116.77
2022-12-17T21:11:49.772Z,126.57
2022-12-17T21:14:19.656Z,121.53
2022-12-17T21:16:47.492Z,109.20
2022-12-17T21:19:19.083Z,101.53
2022-12-17T21:21:47.075Z,96.30
2022-12-17T21:24:14.491Z,114.23
2022-12-17T21:26:44.824Z,100.37
2022-12-17T21:29:12.921Z,108.77
2022-12-17T21:31:43.829Z,97.43
2022-12-17T21:34:22.395Z,99.93
2022-12-17T21:36:50.865Z,68.57
2022-12-17T21:39:19.258Z,142.60
2022-12-17T21:42:06.791Z,103.43
2022-12-17T21:44:35.130Z,90.50
2022-12-17T21:47:02.449Z,97.13
2022-12-17T21:49:30.791Z,76.57
2022-12-17T21:51:59.497Z,78.70
2022-12-17T21:54:27.462Z,98.00
2022-12-17T21:56:55.265Z,83.57
2022-12-17T21:59:25.542Z,92.50
2022-12-17T22:01:54.176Z,81.97
2022-12-17T22:04:21.665Z,80.67
2022-12-17T22:06:52.978Z,85.43
2022-12-17T22:09:28.922Z,93.53
2022-12-17T22:12:31.283Z,155.47
2022-12-17T22:14:58.786Z,264.50
2022-12-17T22:17:26.780Z,135.77
2022-12-17T22:19:54.942Z,163.40
2022-12-17T22:22:22.022Z,95.23
2022-12-17T22:24:49.073Z,126.00
2022-12-17T22:27:16.527Z,87.90
2022-12-17T22:30:02.377Z,83.73
2022-12-17T22:32:48.216Z,68.67
2022-12-17T22:36:04.962Z,82.47
2022-12-17T22:40:55.024Z,146.57
2022-12-17T22:44:32.173Z,94.80
2022-12-17T22:44:44.078Z,73.77
2022-12-17T22:46:27.987Z,64.17
2022-12-17T22:48:57.366Z,99.23
2022-12-17T22:51:36.786Z,106.23
2022-12-17T22:54:10.133Z,86.70
2022-12-17T22:56:48.495Z,81.87
2022-12-17T22:59:27.684Z,284.77
2022-12-17T23:01:54.956Z,106.27
2022-12-17T23:04:22.327Z,95.10
2022-12-17T23:06:50.174Z,76.53
2022-12-17T23:09:19.723Z,82.60
2022-12-17T23:11:49.220Z,111.83
2022-12-17T23:14:18.209Z,90.77
2022-12-17T23:16:45.989Z,85.27
2022-12-17T23:19:13.829Z,78.93
2022-12-17T23:21:41.509Z,85.13
2022-12-17T23:24:09.488Z,83.37
2022-12-17T23:26:38.292Z,86.50
2022-12-17T23:29:17.660Z,106.80
2022-12-17T23:31:47.004Z,94.90
2022-12-17T23:34:14.585Z,88.97
2022-12-17T23:36:41.565Z,100.43
2022-12-17T23:39:08.932Z,94.80
2022-12-17T23:41:36.068Z,98.53
2022-12-17T23:44:03.177Z,83.00
2022-12-17T23:46:31.539Z,73.53
2022-12-17T23:48:58.729Z,94.27
2022-12-17T23:51:26.596Z,78.33
2022-12-17T23:53:56.384Z,139.47
2022-12-17T23:56:27.077Z,89.83
2022-12-17T23:59:01.849Z,137.37
